Time;durP1;ratioP1;P1;durP2;ratioP2;P2;SDS_P1;SDS_P2;PMS_P1;PMS_P2;Temp;Humidity;BMP_temperature;BMP_pressure;BME280_temperature;BME280_humidity;BME280_pressure;Samples;Min_cycle;Max_cycle;Signal;HPM_P1;HPM_P2
2023/04/08 00:01:44;;;;;;;;;;;10.00;92.00;;;9.35;74.25;101118.75;5089248;28;19973;-78
2023/04/08 00:04:13;;;;;;;;;;;10.00;92.00;;;9.32;74.44;101111.13;5088823;28;19928;-79
2023/04/08 00:06:40;;;;;;;;;;;10.00;92.20;;;9.31;74.39;101128.13;5089080;28;19935;-78
2023/04/08 00:09:07;;;;;;;;;;;10.00;92.00;;;9.28;74.24;101127.50;5089063;28;20350;-77
2023/04/08 00:11:34;;;;;;;;;;;10.00;91.80;;;9.25;74.06;101121.69;5092884;28;19928;-77
2023/04/08 00:14:03;;;;;;;;;;;10.00;91.80;;;9.23;73.97;101124.56;5092756;28;19928;-80
2023/04/08 00:16:31;;;;;;;;;;;9.90;91.80;;;9.22;74.16;101127.38;5092653;28;19935;-77
2023/04/08 00:18:58;;;;;;;;;;;9.90;92.00;;;9.20;73.99;101130.25;5092424;28;19924;-78
2023/04/08 00:21:26;;;;;;;;;;;9.90;91.90;;;9.19;74.05;101125.94;5092735;28;19928;-77
2023/04/08 00:23:53;;;;;;;;;;;9.90;91.80;;;9.16;73.98;101123.63;5074105;28;19932;-76
2023/04/08 00:26:20;;;;;;;;;;;9.80;91.80;;;9.15;73.97;101124.66;5092186;28;20677;-76
2023/04/08 00:28:47;;;;;;;;;;;9.90;92.00;;;9.14;74.05;101131.00;5092249;28;19928;-78
2023/04/08 00:31:14;;;;;;;;;;;9.80;92.00;;;9.13;73.95;101133.84;5092525;28;20357;-77
2023/04/08 00:33:42;;;;;;;;;;;9.80;91.90;;;9.11;74.11;101131.34;5073993;28;19924;-77
2023/04/08 00:36:10;;;;;;;;;;;9.80;92.20;;;9.09;74.29;101133.38;5073919;28;19981;-77
2023/04/08 00:38:37;;;;;;;;;;;9.80;92.00;;;9.08;74.31;101137.06;5092005;28;19955;-80
2023/04/08 00:41:05;;;;;;;;;;;9.80;92.40;;;9.09;74.55;101137.88;5074096;28;19988;-79
2023/04/08 00:43:31;;;;;;;;;;;9.80;92.20;;;9.07;74.33;101140.72;5073812;28;19927;-80
2023/04/08 00:45:59;;;;;;;;;;;9.80;92.10;;;9.06;74.24;101141.72;5091952;28;20021;-78
2023/04/08 00:48:26;;;;;;;;;;;9.70;92.20;;;9.06;74.20;101140.91;5073621;28;19967;-76
2023/04/08 00:50:54;;;;;;;;;;;9.70;92.20;;;9.03;74.30;101142.94;5092049;28;19932;-77
2023/04/08 00:53:21;;;;;;;;;;;9.70;92.20;;;9.02;74.22;101145.75;5073544;28;19990;-77
2023/04/08 00:55:48;;;;;;;;;;;9.70;92.10;;;9.01;74.19;101144.13;5073684;28;20467;-76
2023/04/08 00:58:15;;;;;;;;;;;9.70;92.20;;;9.00;74.29;101145.13;5091821;28;19982;-76
2023/04/08 01:01:00;;;;;;;;;;;9.70;92.30;;;9.00;74.40;101145.13;5073632;28;19932;-76
2023/04/08 01:03:34;;;;;;;;;;;9.70;92.40;;;8.99;74.45;101141.66;5073690;28;20391;-78
2023/04/08 01:06:10;;;;;;;;;;;9.70;92.30;;;9.00;74.57;101150.44;5073337;28;19924;-76
2023/04/08 01:08:38;;;;;;;;;;;9.70;92.40;;;8.99;74.50;101151.47;5073404;28;19954;-76
2023/04/08 01:11:08;;;;;;;;;;;9.70;92.40;;;8.99;74.88;101151.47;5073350;28;19932;-78
2023/04/08 01:13:36;;;;;;;;;;;9.70;92.40;;;8.97;74.56;101153.47;5091618;28;20015;-79
2023/04/08 01:16:04;;;;;;;;;;;9.70;92.50;;;8.97;74.61;101150.81;5091455;28;20002;-77
2023/04/08 01:18:32;;;;;;;;;;;9.60;92.40;;;8.96;74.73;101149.16;5073086;28;19939;-77
2023/04/08 01:21:00;;;;;;;;;;;9.60;92.50;;;8.95;74.64;101151.00;5072702;28;20008;-80
2023/04/08 01:23:36;;;;;;;;;;;9.60;92.40;;;8.95;74.67;101147.53;5072888;28;19962;-78
2023/04/08 01:26:05;;;;;;;;;;;9.60;92.40;;;8.95;74.52;101150.19;5091218;28;19932;-76
2023/04/08 01:28:33;;;;;;;;;;;9.60;92.40;;;8.93;74.60;101146.84;5073003;28;19928;-79
2023/04/08 01:31:02;;;;;;;;;;;9.60;92.50;;;8.93;74.78;101152.19;5091275;28;20019;-77
2023/04/08 01:33:29;;;;;;;;;;;9.60;92.70;;;8.94;75.03;101151.19;5091251;28;20301;-77
2023/04/08 01:35:57;;;;;;;;;;;9.60;92.80;;;8.93;75.27;101150.38;5090995;28;20018;-77
2023/04/08 01:38:28;;;;;;;;;;;9.60;93.00;;;8.95;75.55;101156.31;5072274;28;20304;-81
2023/04/08 01:40:55;;;;;;;;;;;9.60;93.10;;;8.94;75.51;101157.34;5091110;28;19932;-76
2023/04/08 01:43:24;;;;;;;;;;;9.60;93.00;;;8.94;75.37;101145.88;5090869;28;19928;-77
2023/04/08 01:45:56;;;;;;;;;;;9.60;92.90;;;8.94;75.28;101145.88;5090842;28;19963;-77
2023/04/08 01:48:24;;;;;;;;;;;9.60;92.80;;;8.93;75.34;101149.53;5072398;28;20380;-78
2023/04/08 01:50:52;;;;;;;;;;;9.60;92.80;;;8.93;75.23;101152.19;5072314;28;19963;-77
2023/04/08 01:53:19;;;;;;;;;;;9.60;93.00;;;8.92;75.49;101148.69;5090738;28;19935;-77
2023/04/08 01:55:46;;;;;;;;;;;9.60;93.00;;;8.92;75.18;101147.88;5090633;28;20011;-78
2023/04/08 01:58:19;;;;;;;;;;;9.60;92.80;;;8.91;75.16;101151.56;5072190;28;19927;-80
2023/04/08 02:00:49;;;;;;;;;;;9.80;93.00;;;8.89;75.23;101153.59;5072151;28;19973;-79
2023/04/08 02:03:18;;;;;;;;;;;9.60;92.80;;;8.89;75.11;101161.56;5072393;28;19928;-76
2023/04/08 02:05:46;;;;;;;;;;;9.60;92.80;;;8.86;75.04;101159.25;5072190;28;19943;-77
2023/04/08 02:08:13;;;;;;;;;;;9.50;92.70;;;8.85;75.06;101165.59;5090451;28;20581;-78
2023/04/08 02:10:40;;;;;;;;;;;9.50;92.80;;;8.84;75.19;101163.94;5072335;28;19928;-78
2023/04/08 02:13:08;;;;;;;;;;;9.50;92.90;;;8.84;75.39;101155.97;5072181;28;19924;-78
2023/04/08 02:15:37;;;;;;;;;;;9.50;93.00;;;8.86;75.59;101169.91;5072013;28;20364;-77
2023/04/08 02:18:11;;;;;;;;;;;9.50;93.20;;;8.85;75.54;101161.09;5072099;28;19998;-77
2023/04/08 02:20:43;;;;;;;;;;;9.50;93.30;;;8.85;75.75;101158.44;5072155;28;19932;-76
2023/04/08 02:23:13;;;;;;;;;;;9.50;93.30;;;8.86;75.79;101159.25;5072224;28;20003;-77
2023/04/08 02:25:43;;;;;;;;;;;9.50;93.20;;;8.86;75.64;101164.56;5071906;28;20035;-80
2023/04/08 02:28:11;;;;;;;;;;;9.50;93.20;;;8.87;75.72;101171.53;5071912;28;20367;-80
2023/04/08 02:30:42;;;;;;;;;;;9.50;93.20;;;8.86;75.73;101162.75;5089879;28;19927;-78
2023/04/08 02:33:14;;;;;;;;;;;9.60;93.20;;;8.87;75.99;101167.03;5071167;28;20666;-79
2023/04/08 02:35:41;;;;;;;;;;;9.60;93.40;;;8.87;76.01;101166.22;5071862;28;19932;-79
2023/04/08 02:38:09;;;;;;;;;;;9.60;93.50;;;8.88;75.99;101167.88;5071681;28;19932;-78
2023/04/08 02:40:36;;;;;;;;;;;9.60;93.60;;;8.88;75.96;101167.88;5090148;28;19931;-78
2023/04/08 02:43:04;;;;;;;;;;;9.60;93.30;;;8.86;75.87;101162.75;5071905;28;19935;-76
2023/04/08 02:45:32;;;;;;;;;;;9.60;93.20;;;8.87;75.63;101171.53;5089730;28;19932;-76
2023/04/08 02:48:00;;;;;;;;;;;9.60;93.10;;;8.84;75.50;101162.09;5071533;28;19928;-76
2023/04/08 02:50:29;;;;;;;;;;;9.50;93.10;;;8.84;75.34;101158.63;5089872;28;19997;-77
2023/04/08 02:52:56;;;;;;;;;;;9.50;93.00;;;8.82;75.11;101161.44;5071726;28;20307;-77
2023/04/08 02:55:23;;;;;;;;;;;9.50;92.80;;;8.81;75.19;101158.97;5071229;28;19969;-78
2023/04/08 02:57:50;;;;;;;;;;;9.50;92.90;;;8.80;75.30;101162.66;5089663;28;20031;-78
2023/04/08 03:00:17;;;;;;;;;;;9.50;93.00;;;8.80;75.30;101165.31;5071557;28;19932;-78
2023/04/08 03:02:44;;;;;;;;;;;9.50;93.00;;;8.78;75.29;101165.47;5089833;28;19928;-80
2023/04/08 03:05:11;;;;;;;;;;;9.50;93.00;;;8.76;75.37;101170.97;5089498;28;19924;-81
2023/04/08 03:07:40;;;;;;;;;;;9.50;93.00;;;8.76;74.91;101175.47;5089473;28;20553;-76
2023/04/08 03:10:08;;;;;;;;;;;9.40;92.60;;;8.74;75.12;101181.00;5089896;28;19973;-76
2023/04/08 03:12:35;;;;;;;;;;;9.40;92.80;;;8.73;75.19;101181.97;5089777;28;20433;-79
2023/04/08 03:15:02;;;;;;;;;;;9.40;92.80;;;8.72;75.00;101174.19;5071502;28;19967;-78
2023/04/08 03:17:32;;;;;;;;;;;9.40;92.80;;;8.71;75.12;101181.34;5089487;28;19935;-77
2023/04/08 03:19:59;;;;;;;;;;;9.40;92.80;;;8.71;75.05;101176.03;5089616;28;19928;-80
2023/04/08 03:22:26;;;;;;;;;;;9.40;92.80;;;8.72;75.15;101176.84;5089606;28;20026;-79
2023/04/08 03:24:54;;;;;;;;;;;9.40;92.80;;;8.71;75.19;101176.03;5089414;28;19931;-77
2023/04/08 03:27:21;;;;;;;;;;;9.40;92.90;;;8.72;75.29;101182.16;5089455;28;19956;-80
2023/04/08 03:29:48;;;;;;;;;;;9.40;93.00;;;8.72;75.39;101174.19;5089560;28;20410;-77
2023/04/08 03:32:15;;;;;;;;;;;9.40;93.10;;;8.73;75.53;101175.84;5089536;28;19964;-78
2023/04/08 03:34:42;;;;;;;;;;;9.40;93.10;;;8.74;75.61;101185.47;5089356;28;19947;-78
2023/04/08 03:37:09;;;;;;;;;;;9.40;93.20;;;8.74;75.83;101172.19;5089506;28;20030;-77
2023/04/08 03:39:36;;;;;;;;;;;9.40;93.40;;;8.75;75.93;101179.16;5089443;28;19928;-78
2023/04/08 03:42:05;;;;;;;;;;;9.60;93.60;;;8.75;76.09;101177.31;5089549;28;20026;-81
2023/04/08 03:44:32;;;;;;;;;;;9.50;93.70;;;8.76;76.21;101180.81;5089871;28;20022;-81
2023/04/08 03:46:59;;;;;;;;;;;9.50;93.60;;;8.75;76.25;101177.31;5093212;28;20490;-78
2023/04/08 03:49:26;;;;;;;;;;;9.40;93.60;;;8.77;76.10;101177.13;5074696;28;19959;-78
2023/04/08 03:51:53;;;;;;;;;;;9.40;93.60;;;8.76;76.26;101186.13;5093226;28;20273;-77
2023/04/08 03:54:20;;;;;;;;;;;9.50;93.60;;;8.77;76.37;101183.25;5092917;28;19934;-77
2023/04/08 03:56:47;;;;;;;;;;;9.50;93.60;;;8.76;76.19;101188.78;5092743;28;19981;-79
2023/04/08 03:59:15;;;;;;;;;;;9.40;93.60;;;8.76;76.40;101189.59;5092939;28;19964;-78
2023/04/08 04:01:42;;;;;;;;;;;9.40;93.60;;;8.77;76.28;101193.91;5092599;28;19928;-77
2023/04/08 04:04:09;;;;;;;;;;;9.40;93.70;;;8.76;76.39;101189.59;5092853;28;20437;-79
2023/04/08 04:06:36;;;;;;;;;;;9.40;93.70;;;8.76;76.49;101186.94;5092957;28;19978;-78
2023/04/08 04:09:03;;;;;;;;;;;9.60;93.80;;;8.76;76.59;101194.09;5092698;28;19935;-77
2023/04/08 04:11:30;;;;;;;;;;;9.40;93.80;;;8.75;76.68;101185.28;5092923;28;19928;-79
2023/04/08 04:13:57;;;;;;;;;;;9.40;93.90;;;8.76;76.80;101191.44;5074451;28;20393;-79
2023/04/08 04:16:26;;;;;;;;;;;9.40;94.00;;;8.75;76.93;101190.63;5092635;28;20018;-77
2023/04/08 04:18:53;;;;;;;;;;;9.50;94.00;;;8.76;76.99;101194.09;5092517;28;19928;-76
2023/04/08 04:21:20;;;;;;;;;;;9.40;94.00;;;8.76;76.74;101192.25;5074462;28;20402;-80
2023/04/08 04:23:47;;;;;;;;;;;9.40;93.90;;;8.75;76.71;101187.97;5092633;28;19932;-76
2023/04/08 04:26:14;;;;;;;;;;;9.40;93.90;;;8.77;76.93;101199.22;5092404;28;19931;-79
2023/04/08 04:28:41;;;;;;;;;;;9.50;94.00;;;8.79;77.01;101198.25;5092558;28;19932;-81
2023/04/08 04:31:08;;;;;;;;;;;9.40;94.00;;;8.78;77.04;101189.41;5092211;28;19985;-78
2023/04/08 04:33:36;;;;;;;;;;;9.50;94.20;;;8.79;77.19;101200.91;5092317;28;20405;-76
2023/04/08 04:36:03;;;;;;;;;;;9.50;94.20;;;8.78;77.08;101197.38;5092223;28;19934;-79
2023/04/08 04:38:30;;;;;;;;;;;9.50;94.00;;;8.77;77.06;101193.09;5092219;28;20044;-79
2023/04/08 04:40:57;;;;;;;;;;;9.50;94.10;;;8.79;76.97;101216.84;5092307;28;19928;-81
2023/04/08 04:43:25;;;;;;;;;;;9.50;94.10;;;8.77;77.04;101209.88;5092215;28;19928;-77
2023/04/08 04:45:52;;;;;;;;;;;9.50;94.10;;;8.78;77.22;101221.31;5092063;28;19946;-77
2023/04/08 04:48:19;;;;;;;;;;;9.50;94.10;;;8.77;77.07;101225.81;5091933;28;19935;-77
2023/04/08 04:50:56;;;;;;;;;;;9.50;94.20;;;8.77;77.30;101228.47;5092052;28;20380;-78
2023/04/08 04:53:23;;;;;;;;;;;9.50;94.20;;;8.79;76.94;101227.50;5091891;28;19928;-76
2023/04/08 04:55:50;;;;;;;;;;;9.50;94.20;;;8.77;77.28;101223.16;5091416;28;19939;-78
2023/04/08 04:58:17;;;;;;;;;;;9.50;94.30;;;8.80;77.45;101226.47;5091354;28;19932;-78
2023/04/08 05:00:44;;;;;;;;;;;9.50;94.30;;;8.79;77.48;101223.00;5091979;28;19928;-77
2023/04/08 05:03:11;;;;;;;;;;;9.50;94.40;;;8.80;77.35;101215.84;5091764;28;19954;-77
2023/04/08 05:05:39;;;;;;;;;;;9.50;94.40;;;8.81;77.42;101220.97;5091588;28;19971;-81
2023/04/08 05:08:07;;;;;;;;;;;9.50;94.20;;;8.80;77.41;101224.66;5091616;28;19928;-78
2023/04/08 05:10:35;;;;;;;;;;;9.50;94.30;;;8.81;77.53;101226.28;5091707;28;20396;-78
2023/04/08 05:13:02;;;;;;;;;;;9.50;94.40;;;8.81;77.55;101220.16;5091666;28;19930;-80
2023/04/08 05:15:29;;;;;;;;;;;9.50;94.40;;;8.82;77.58;101227.13;5091405;28;19928;-80
2023/04/08 05:17:56;;;;;;;;;;;9.50;94.40;;;8.82;77.57;101235.91;5091395;28;19924;-77
2023/04/08 05:20:23;;;;;;;;;;;9.50;94.40;;;8.82;77.65;101235.09;5091521;28;19981;-78
2023/04/08 05:22:50;;;;;;;;;;;9.50;94.40;;;8.84;77.60;101235.75;5091543;28;19983;-78
2023/04/08 05:25:18;;;;;;;;;;;9.50;94.40;;;8.84;77.66;101243.75;5091155;28;19971;-78
2023/04/08 05:27:45;;;;;;;;;;;9.60;94.50;;;8.84;77.77;101241.06;5091189;28;19932;-77
2023/04/08 05:30:13;;;;;;;;;;;9.60;94.40;;;8.83;77.91;101245.53;5091414;28;19924;-77
2023/04/08 05:32:40;;;;;;;;;;;9.60;94.40;;;8.84;77.82;101246.41;5091419;28;19930;-76
2023/04/08 05:35:08;;;;;;;;;;;9.60;94.40;;;8.83;77.80;101244.72;5072774;28;19971;-79
2023/04/08 05:37:35;;;;;;;;;;;9.50;94.50;;;8.84;77.69;101252.53;5091115;28;19928;-76
2023/04/08 05:40:02;;;;;;;;;;;9.60;94.40;;;8.84;77.65;101249.88;5091136;28;20019;-76
2023/04/08 05:42:31;;;;;;;;;;;9.60;94.50;;;8.84;77.71;101252.53;5091118;28;20303;-77
2023/04/08 05:44:58;;;;;;;;;;;9.60;94.40;;;8.84;77.89;101260.53;5090725;28;19942;-78
2023/04/08 05:47:25;;;;;;;;;;;9.60;94.40;;;8.84;77.75;101259.69;5090836;28;20035;-79
2023/04/08 05:49:52;;;;;;;;;;;9.60;94.40;;;8.85;77.66;101250.72;5090841;28;19928;-76
2023/04/08 05:52:20;;;;;;;;;;;9.50;94.40;;;8.85;77.73;101264.00;5090650;28;19989;-76
2023/04/08 05:54:47;;;;;;;;;;;9.60;94.40;;;8.85;77.83;101266.66;5090496;28;19931;-77
2023/04/08 05:57:15;;;;;;;;;;;9.60;94.50;;;8.85;77.95;101271.97;5090771;28;19924;-78
2023/04/08 05:59:44;;;;;;;;;;;9.60;94.70;;;8.86;78.04;101273.63;5090871;28;20022;-76
2023/04/08 06:02:11;;;;;;;;;;;9.60;94.80;;;8.87;78.31;101276.09;5090805;28;19942;-77
2023/04/08 06:04:38;;;;;;;;;;;9.60;94.70;;;8.87;78.15;101277.94;5090617;28;19981;-78
2023/04/08 06:07:07;;;;;;;;;;;9.60;94.60;;;8.88;78.31;101276.91;5090476;28;20063;-78
2023/04/08 06:09:35;;;;;;;;;;;9.60;94.80;;;8.88;78.58;101280.44;5090553;28;19928;-78
2023/04/08 06:12:02;;;;;;;;;;;9.60;95.00;;;8.87;78.74;101281.41;5090206;28;19932;-77
2023/04/08 06:14:29;;;;;;;;;;;9.50;95.00;;;8.87;78.67;101284.06;5090363;28;20026;-78
2023/04/08 06:16:58;;;;;;;;;;;9.60;95.00;;;8.89;78.75;101289.25;5090476;28;20472;-77
2023/04/08 06:19:25;;;;;;;;;;;9.60;95.00;;;8.89;78.70;101283.91;5090281;28;19966;-79
2023/04/08 06:21:57;;;;;;;;;;;9.60;95.00;;;8.90;78.74;101285.56;5090516;28;19935;-76
2023/04/08 06:24:26;;;;;;;;;;;9.60;95.00;;;8.90;78.86;101286.41;5090442;28;19924;-81
2023/04/08 06:26:53;;;;;;;;;;;9.60;95.00;;;8.91;78.78;101292.53;5090304;28;19946;-80
2023/04/08 06:29:20;;;;;;;;;;;9.60;95.00;;;8.91;78.68;101297.84;5089840;28;20388;-76
2023/04/08 06:31:47;;;;;;;;;;;9.60;95.00;;;8.91;78.68;101301.34;5090319;28;19928;-79
2023/04/08 06:34:16;;;;;;;;;;;9.60;95.00;;;8.92;78.76;101299.50;5090131;28;19959;-79
2023/04/08 06:36:43;;;;;;;;;;;9.60;95.00;;;8.92;78.73;101307.47;5090106;28;19924;-77
2023/04/08 06:39:10;;;;;;;;;;;9.60;95.00;;;8.93;78.81;101309.97;5090064;28;19935;-76
2023/04/08 06:41:37;;;;;;;;;;;9.70;95.00;;;8.93;78.63;101309.13;5090144;28;19935;-77
2023/04/08 06:44:18;;;;;;;;;;;9.70;94.90;;;8.93;78.63;101309.13;5071724;28;19951;-78
2023/04/08 06:46:45;;;;;;;;;;;9.70;95.00;;;8.93;78.69;101299.34;5089746;28;20372;-79
2023/04/08 06:49:13;;;;;;;;;;;9.70;95.10;;;8.94;78.73;101305.50;5089763;28;19934;-76
2023/04/08 06:51:41;;;;;;;;;;;9.60;94.90;;;8.94;78.73;101306.31;5090070;28;19934;-77
2023/04/08 06:54:09;;;;;;;;;;;9.70;95.20;;;8.96;78.63;101311.44;5089717;28;19928;-78
2023/04/08 06:56:36;;;;;;;;;;;9.70;95.10;;;8.95;78.49;101307.13;5089776;28;19931;-76
2023/04/08 06:59:03;;;;;;;;;;;9.70;95.00;;;8.96;78.63;101308.78;5089657;28;19928;-77
2023/04/08 07:01:30;;;;;;;;;;;9.70;95.20;;;8.97;78.76;101315.75;5089985;28;19936;-76
2023/04/08 07:03:57;;;;;;;;;;;9.70;95.10;;;8.97;78.95;101321.06;5089665;28;19928;-78
2023/04/08 07:06:24;;;;;;;;;;;9.70;95.40;;;8.97;79.04;101332.53;5089641;28;19924;-79
2023/04/08 07:08:53;;;;;;;;;;;9.60;95.20;;;8.97;78.56;101329.06;5089667;28;20632;-76
2023/04/08 07:11:20;;;;;;;;;;;9.60;95.20;;;8.96;78.86;101328.22;5089755;28;19928;-77
2023/04/08 07:13:48;;;;;;;;;;;9.70;95.30;;;8.96;78.86;101332.72;5089722;28;19939;-78
2023/04/08 07:16:15;;;;;;;;;;;9.70;95.20;;;8.97;78.89;101337.03;5089498;28;20320;-78
2023/04/08 07:18:42;;;;;;;;;;;9.80;95.20;;;8.97;78.72;101342.34;5089572;28;20419;-77
2023/04/08 07:21:09;;;;;;;;;;;9.70;95.20;;;8.97;78.83;101343.19;5092952;28;20024;-79
2023/04/08 07:23:36;;;;;;;;;;;9.60;95.00;;;8.97;78.98;101350.34;5093687;28;19924;-79
2023/04/08 07:26:05;;;;;;;;;;;9.70;95.40;;;8.98;79.27;101349.34;5093465;28;19969;-76
2023/04/08 07:28:32;;;;;;;;;;;9.70;95.70;;;8.99;79.35;101348.34;5093588;28;20012;-77
2023/04/08 07:31:09;;;;;;;;;;;9.70;95.60;;;8.98;79.44;101346.69;5075275;28;19932;-79
2023/04/08 07:33:36;;;;;;;;;;;9.70;95.60;;;8.97;79.42;101353.00;5093619;28;19931;-78
2023/04/08 07:36:04;;;;;;;;;;;9.70;95.40;;;8.99;79.39;101356.31;5093555;28;19982;-77
2023/04/08 07:38:31;;;;;;;;;;;9.70;95.60;;;8.95;79.06;101357.69;5093367;28;20640;-77
2023/04/08 07:40:58;;;;;;;;;;;9.70;95.30;;;8.95;79.15;101355.03;5093496;28;20039;-78
2023/04/08 07:43:27;;;;;;;;;;;9.70;95.30;;;8.94;78.90;101361.34;5093272;28;20030;-76
2023/04/08 07:45:54;;;;;;;;;;;9.70;95.20;;;8.97;79.14;101363.63;5093264;28;20475;-79
2023/04/08 07:48:21;;;;;;;;;;;9.70;95.40;;;8.95;78.90;101370.97;5093012;28;19927;-78
2023/04/08 07:50:48;;;;;;;;;;;9.60;95.10;;;8.93;78.63;101367.66;5074672;28;19959;-78
2023/04/08 07:53:15;;;;;;;;;;;9.60;95.00;;;8.95;78.74;101371.81;5093127;28;19971;-77
2023/04/08 07:55:42;;;;;;;;;;;9.60;95.20;;;8.95;79.00;101377.13;5102425;22;19924;-77
2023/04/08 07:58:09;;;;;;;;;;;9.70;95.30;;;8.93;78.89;101379.16;5092440;28;19928;-77
2023/04/08 08:00:37;;;;;;;;;;;9.70;95.30;;;8.95;79.04;101373.66;5091608;28;19932;-77
2023/04/08 08:03:04;;;;;;;;;;;9.70;95.30;;;8.96;78.86;101367.31;5093082;28;20438;-76
2023/04/08 08:05:31;;;;;;;;;;;9.70;95.30;;;8.98;78.90;101375.97;5092805;28;19931;-77
2023/04/08 08:07:58;;;;;;;;;;;9.70;95.40;;;9.01;79.16;101380.91;5092715;28;19974;-77
2023/04/08 08:10:26;;;;;;;;;;;9.70;95.60;;;9.03;79.29;101385.06;5092584;28;20411;-77
2023/04/08 08:12:53;;;;;;;;;;;9.70;95.60;;;9.03;79.06;101381.56;5074437;28;19928;-77
2023/04/08 08:15:20;;;;;;;;;;;9.70;95.40;;;9.07;79.24;101392.66;5092702;28;19951;-76
2023/04/08 08:17:48;;;;;;;;;;;9.80;95.40;;;9.08;79.10;101397.84;5092631;28;20658;-76
2023/04/08 08:20:15;;;;;;;;;;;9.80;95.50;;;9.10;78.82;101403.78;5074409;28;19934;-77
2023/04/08 08:22:44;;;;;;;;;;;9.80;95.20;;;9.10;78.79;101406.44;5092757;28;20026;-77
2023/04/08 08:25:11;;;;;;;;;;;9.80;95.40;;;9.12;78.85;101414.25;5092568;28;19928;-77
2023/04/08 08:27:40;;;;;;;;;;;9.80;95.20;;;9.11;78.65;101400.13;5092244;28;20023;-77
2023/04/08 08:30:08;;;;;;;;;;;9.80;95.00;;;9.12;78.37;101409.75;5092453;28;19932;-76
2023/04/08 08:32:35;;;;;;;;;;;9.80;94.80;;;9.15;78.13;101409.41;5092220;28;19928;-77
2023/04/08 08:35:04;;;;;;;;;;;9.80;94.70;;;9.16;78.12;101411.06;5092132;28;19924;-77
2023/04/08 08:37:31;;;;;;;;;;;9.90;94.70;;;9.16;77.91;101413.72;5092302;28;20311;-78
2023/04/08 08:39:58;;;;;;;;;;;9.90;94.70;;;9.16;77.75;101411.06;5092372;28;20026;-76
2023/04/08 08:42:26;;;;;;;;;;;9.90;94.50;;;9.20;77.89;101417.69;5074075;28;19970;-79
2023/04/08 08:44:54;;;;;;;;;;;9.90;94.70;;;9.20;77.84;101411.53;5092188;28;20023;-76
2023/04/08 08:47:21;;;;;;;;;;;9.90;94.60;;;9.18;77.55;101416.22;5091966;28;19927;-76
2023/04/08 08:49:48;;;;;;;;;;;9.90;94.20;;;9.17;76.86;101407.38;5092251;28;20382;-77
2023/04/08 08:52:17;;;;;;;;;;;9.90;93.60;;;9.20;77.01;101408.88;5073777;28;19981;-77
2023/04/08 08:54:45;;;;;;;;;;;10.00;94.00;;;9.19;76.63;101413.38;5091825;28;19935;-76
2023/04/08 08:57:18;;;;;;;;;;;9.90;93.40;;;9.19;76.22;101416.03;5091956;28;20018;-77
2023/04/08 08:59:46;;;;;;;;;;;9.90;93.30;;;9.19;76.05;101418.69;5092031;28;19928;-78
2023/04/08 09:02:27;;;;;;;;;;;9.90;93.40;;;9.22;75.72;101426.34;5091820;28;19928;-77
2023/04/08 09:04:59;;;;;;;;;;;9.90;92.80;;;9.24;75.13;101431.47;5091728;28;19935;-76
2023/04/08 09:07:29;;;;;;;;;;;9.90;92.60;;;9.22;74.15;101431.66;5091512;28;19935;-77
2023/04/08 09:09:57;;;;;;;;;;;9.90;91.80;;;9.23;74.49;101432.47;5091882;28;19981;-79
2023/04/08 09:12:26;;;;;;;;;;;9.90;92.20;;;9.24;73.74;101434.13;5091728;28;19928;-78
2023/04/08 09:15:03;;;;;;;;;;;9.90;91.60;;;9.21;72.65;101429.97;5091576;28;20132;-77
2023/04/08 09:17:35;;;;;;;;;;;9.90;90.40;;;9.23;72.12;101435.13;5091515;28;20024;-76
2023/04/08 09:20:10;;;;;;;;;;;9.90;90.30;;;9.25;72.34;101439.25;5091671;28;19934;-78
2023/04/08 09:22:58;;;;;;;;;;;9.90;90.40;;;9.26;72.66;101432.94;5091536;28;20028;-76
2023/04/08 09:25:26;;;;;;;;;;;10.00;90.90;;;9.31;72.41;101436.88;5091312;28;20034;-79
2023/04/08 09:27:53;;;;;;;;;;;10.00;90.60;;;9.34;72.58;101436.53;5091258;28;20027;-75
2023/04/08 09:30:23;;;;;;;;;;;10.00;90.60;;;9.35;72.47;101446.19;5091526;28;19960;-78
2023/04/08 09:32:51;;;;;;;;;;;10.00;90.50;;;9.37;72.75;101442.34;5091389;28;20083;-76
2023/04/08 09:35:19;;;;;;;;;;;10.10;91.00;;;9.37;70.70;101447.66;5091008;28;19960;-77
2023/04/08 09:37:46;;;;;;;;;;;10.00;88.70;;;9.39;70.65;101442.16;5091031;28;20396;-80
2023/04/08 09:40:15;;;;;;;;;;;10.10;89.00;;;9.45;70.72;101431.59;5091235;28;19934;-77
2023/04/08 09:42:47;;;;;;;;;;;10.10;89.30;;;9.52;71.05;101439.72;5090676;28;19932;-78
2023/04/08 09:45:15;;;;;;;;;;;10.20;89.70;;;9.54;70.67;101437.69;5090986;28;20019;-78
2023/04/08 09:47:55;;;;;;;;;;;10.20;89.20;;;9.54;69.91;101440.34;5090850;28;19975;-78
2023/04/08 09:50:26;;;;;;;;;;;10.20;88.30;;;9.58;69.36;101446.16;5091040;28;19928;-77
2023/04/08 09:52:57;;;;;;;;;;;10.30;88.10;;;9.63;69.72;101443.78;5091108;28;20372;-76
2023/04/08 09:55:27;;;;;;;;;;;10.20;88.50;;;9.66;69.61;101443.41;5090114;28;19928;-77
2023/04/08 09:57:59;;;;;;;;;;;10.40;88.00;;;9.63;67.88;101441.94;5090737;28;20030;-77
2023/04/08 10:00:30;;;;;;;;;;;10.40;86.50;;;9.61;66.77;101441.28;5090810;28;19928;-76
2023/04/08 10:03:04;;;;;;;;;;;10.40;85.60;;;9.63;67.38;101433.13;5090817;28;19939;-78
2023/04/08 10:05:32;;;;;;;;;;;10.40;86.40;;;9.66;67.03;101446.91;5090526;28;20418;-77
2023/04/08 10:07:59;;;;;;;;;;;10.40;85.90;;;9.66;67.25;101440.72;5090067;28;19928;-78
2023/04/08 10:10:28;;;;;;;;;;;10.40;85.70;;;9.61;65.12;101441.28;5090509;28;19935;-77
2023/04/08 10:12:55;;;;;;;;;;;10.30;83.70;;;9.56;65.26;101443.66;5090515;28;20023;-77
2023/04/08 10:15:23;;;;;;;;;;;10.30;84.30;;;9.57;65.33;101448.00;5090402;28;19928;-77
2023/04/08 10:17:51;;;;;;;;;;;10.30;84.20;;;9.55;64.86;101440.16;5090261;28;19928;-78
2023/04/08 10:20:41;;;;;;;;;;;10.30;83.60;;;9.58;65.71;101446.97;5090539;28;19970;-76
2023/04/08 10:23:09;;;;;;;;;;;10.30;84.90;;;9.61;66.18;101443.13;5090395;28;19939;-76
2023/04/08 10:25:38;;;;;;;;;;;10.30;85.30;;;9.60;66.76;101442.28;5090136;28;20602;-79
2023/04/08 10:28:26;;;;;;;;;;;10.30;85.70;;;9.62;66.28;101453.59;5090050;28;19928;-77
2023/04/08 10:30:54;;;;;;;;;;;10.40;85.10;;;9.63;65.72;101457.91;5070188;28;19932;-76
2023/04/08 10:33:24;;;;;;;;;;;10.40;84.50;;;9.61;65.22;101451.94;5070074;28;19936;-77
2023/04/08 10:35:54;;;;;;;;;;;10.30;84.30;;;9.64;66.54;101456.91;5069827;28;19935;-76
2023/04/08 10:38:21;;;;;;;;;;;10.40;85.60;;;9.65;67.47;101455.06;5069758;28;20419;-77
2023/04/08 10:40:50;;;;;;;;;;;10.40;86.40;;;9.64;66.63;101454.25;5069884;28;19951;-75
2023/04/08 10:43:17;;;;;;;;;;;10.40;85.40;;;9.66;66.45;101448.72;5069749;28;19928;-79
2023/04/08 10:45:44;;;;;;;;;;;10.40;85.30;;;9.64;65.67;101456.06;5051730;28;19967;-79
2023/04/08 10:48:13;;;;;;;;;;;10.30;84.00;;;9.59;65.06;101450.47;5069583;28;19950;-77
2023/04/08 10:50:40;;;;;;;;;;;10.30;84.10;;;9.57;64.80;101444.50;5069774;28;19924;-78
2023/04/08 10:53:08;;;;;;;;;;;10.30;84.00;;;9.57;66.08;101445.34;5051622;28;19924;-76
2023/04/08 10:55:35;;;;;;;;;;;10.30;84.90;;;9.58;65.91;101440.84;5068581;28;19975;-75
2023/04/08 10:58:10;;;;;;;;;;;10.30;84.90;;;9.60;66.48;101441.47;5069505;28;20014;-79
2023/04/08 11:00:38;;;;;;;;;;;10.30;85.50;;;9.58;65.57;101446.16;5069708;28;19928;-76
2023/04/08 11:03:06;;;;;;;;;;;10.30;84.50;;;9.55;65.79;101442.00;5069807;28;19939;-77
2023/04/08 11:05:35;;;;;;;;;;;10.30;84.50;;;9.55;65.33;101447.34;5051395;28;19934;-76
2023/04/08 11:08:02;;;;;;;;;;;10.30;84.30;;;9.55;65.28;101436.69;5069480;28;19928;-76
2023/04/08 11:10:30;;;;;;;;;;;10.20;84.10;;;9.57;65.92;101436.53;5069638;28;19929;-76
2023/04/08 11:12:57;;;;;;;;;;;10.30;84.50;;;9.59;65.40;101445.97;5069683;28;19974;-76
2023/04/08 11:15:26;;;;;;;;;;;10.30;84.30;;;9.59;65.23;101443.31;5069296;28;19929;-77
2023/04/08 11:17:53;;;;;;;;;;;10.30;84.10;;;9.59;64.88;101443.31;5069403;28;19924;-76
2023/04/08 11:20:21;;;;;;;;;;;10.30;83.90;;;9.60;64.17;101444.13;5069603;28;19928;-77
2023/04/08 11:22:48;;;;;;;;;;;10.30;82.90;;;9.57;64.30;101440.00;5069551;28;19932;-78
2023/04/08 11:25:15;;;;;;;;;;;10.30;83.30;;;9.58;64.29;101443.50;5069268;28;19968;-77
2023/04/08 11:27:43;;;;;;;;;;;10.30;83.30;;;9.58;63.51;101436.31;5069157;28;20194;-77
2023/04/08 11:30:11;;;;;;;;;;;10.30;82.60;;;9.63;64.64;101443.78;5069559;28;19929;-76